Prairieville, LA

1:39 PM CDT on July 27, 2016 (GMT -0500)
Cotton Field Ave | | Change Station

Elev 33 ft 30.29 °N, 90.93 °W | Updated 11 minutes ago

Mostly Cloudy
Mostly Cloudy
78.6 °F
Feels Like 82 °F
N
4.7
Wind Variable Wind from South

Today
High -- | Low -- °F
--% Chance of Precip.
Yesterday
High -- | Low -- °F
Precip. -- in
Pressure 30.06 in
Visibility 10.0 miles
Clouds Scattered Clouds 4600 ft
Scattered Clouds 6500 ft
Mostly Cloudy 9000 ft
Heat Index 82 °F
Dew Point 75 °F
Humidity 90%
Rainfall 0.62 in
Snow Depth Not available.
6:19 AM 8:00 PM
Last Quarter, 41% visible
METAR KL38 271835Z AUTO 26005KT 10SM SCT046 SCT065 BKN090 26/23 A3006 RMK AO2 P0001 T02560234
Pressure 30.06 in
Visibility 10.0 miles
Clouds Scattered Clouds 4600 ft
Scattered Clouds 6500 ft
Mostly Cloudy 9000 ft
Heat Index 82 °F
Dew Point 75 °F
Humidity 90%
Rainfall 0.62 in
Snow Depth Not available.
6:19 AM 8:00 PM
Last Quarter, 41% visible
METAR KL38 271835Z AUTO 26005KT 10SM SCT046 SCT065 BKN090 26/23 A3006 RMK AO2 P0001 T02560234

10-Day Weather Forecast

Almanac

Astronomy

Jul. 27, 2016 Rise Set
Actual Time
Civil Twilight
Nautical Twilight
Astronomical Twilight
Moon
Length of Visible Light
Length of Day
Tomorrow will be .
, % of the Moon is Illuminated

Today's Extremes

State Highs State Lows

Community

WunderPhotos

Upload Photos

1,927,894 photos uploaded!

WunderBlog® & News

Nearby

Air Quality

  Air Quality AQ Index Pollutant
Not available.

Snow Depth

Station Depth Elevation

Earthquake Activity

City Distance Mag. Time & Date
Minimum magnitude displayed is 2.5.

Coastal Water Temperatures

Place Temperature

Stations

Nearby Weather Stations

Station Location Temp. Windchill Dew Point Humidity Wind Precip. Elev Updated Type
                   

Watches & Warnings

There are currently no watches in effect.